createdAt,value
2018-05-21T00:01:27.913Z,6.57
2018-05-21T00:03:55.682Z,6.47
2018-05-21T00:06:23.357Z,6.30
2018-05-21T00:08:51.040Z,5.30
2018-05-21T00:11:18.720Z,5.47
2018-05-21T00:13:46.389Z,5.50
2018-05-21T00:16:14.081Z,7.57
2018-05-21T00:18:42.532Z,5.73
2018-05-21T00:21:10.201Z,8.57
2018-05-21T00:23:37.906Z,5.43
2018-05-21T00:26:05.610Z,5.43
2018-05-21T00:28:33.290Z,6.77
2018-05-21T00:31:01.068Z,5.17
2018-05-21T00:33:28.753Z,5.70
2018-05-21T00:35:57.199Z,8.20
2018-05-21T00:38:24.880Z,9.90
2018-05-21T00:40:52.555Z,8.57
2018-05-21T00:43:20.997Z,7.53
2018-05-21T00:45:48.698Z,7.60
2018-05-21T00:48:17.164Z,13.30
2018-05-21T00:50:44.851Z,8.33
2018-05-21T00:53:13.309Z,6.60
2018-05-21T00:55:41.020Z,8.30
2018-05-21T00:58:08.702Z,7.23
2018-05-21T01:00:36.367Z,7.10
2018-05-21T01:03:04.061Z,6.33
2018-05-21T01:05:32.516Z,8.10
2018-05-21T01:08:00.200Z,9.40
2018-05-21T01:10:27.892Z,5.97
2018-05-21T01:12:55.595Z,9.67
2018-05-21T01:15:23.269Z,11.50
2018-05-21T01:17:50.953Z,11.93
2018-05-21T01:20:18.664Z,6.83
2018-05-21T01:22:46.343Z,11.53
2018-05-21T01:25:14.141Z,12.40
2018-05-21T01:27:41.813Z,9.73
2018-05-21T01:30:10.284Z,10.87
2018-05-21T01:32:37.960Z,11.43
2018-05-21T01:35:06.444Z,11.10
2018-05-21T01:37:34.899Z,13.53
2018-05-21T01:40:02.573Z,9.10
2018-05-21T01:42:30.262Z,8.53
2018-05-21T01:44:57.965Z,33.47
2018-05-21T01:47:25.656Z,13.20
2018-05-21T01:49:53.337Z,12.43
2018-05-21T01:52:21.780Z,9.97
2018-05-21T01:54:49.468Z,10.43
2018-05-21T01:57:17.168Z,12.70
2018-05-21T01:59:44.872Z,14.83
2018-05-21T02:02:12.557Z,14.43
2018-05-21T02:04:40.286Z,14.00
2018-05-21T02:07:07.981Z,11.27
2018-05-21T02:09:35.669Z,8.27
2018-05-21T02:12:04.165Z,17.80
2018-05-21T02:14:31.869Z,11.43
2018-05-21T02:16:59.557Z,27.07
2018-05-21T02:19:28.025Z,13.43
2018-05-21T02:21:55.705Z,9.23
2018-05-21T02:24:24.172Z,30.47
2018-05-21T02:26:51.867Z,10.70
2018-05-21T02:29:19.857Z,12.47
2018-05-21T02:31:47.554Z,8.60
2018-05-21T02:34:15.237Z,9.40
2018-05-21T02:36:43.688Z,17.17
2018-05-21T02:39:11.376Z,15.60
2018-05-21T02:41:39.852Z,14.93
2018-05-21T02:44:07.564Z,18.50
2018-05-21T02:46:35.256Z,10.17
2018-05-21T02:49:02.944Z,7.63
2018-05-21T02:51:30.714Z,10.20
2018-05-21T02:53:59.166Z,12.83
2018-05-21T02:56:26.853Z,10.80
2018-05-21T02:58:54.533Z,10.43
2018-05-21T03:01:22.983Z,8.20
2018-05-21T03:03:50.666Z,15.20
2018-05-21T03:06:19.112Z,12.27
2018-05-21T03:08:46.780Z,10.90
2018-05-21T03:11:14.460Z,10.53
2018-05-21T03:13:42.139Z,11.37
2018-05-21T03:16:10.585Z,8.07
2018-05-21T03:18:38.283Z,12.10
2018-05-21T03:21:06.748Z,10.57
2018-05-21T03:23:34.484Z,9.57
2018-05-21T03:26:02.156Z,8.20
2018-05-21T03:28:29.838Z,12.63
2018-05-21T03:30:57.517Z,21.37
2018-05-21T03:33:25.982Z,12.93
2018-05-21T03:35:54.673Z,13.13
2018-05-21T03:38:23.121Z,8.40
2018-05-21T03:40:50.809Z,7.23
2018-05-21T03:43:18.471Z,8.07
2018-05-21T03:45:46.149Z,14.57
2018-05-21T03:48:14.590Z,11.33
2018-05-21T03:50:43.280Z,10.67
2018-05-21T03:53:10.960Z,12.47
2018-05-21T03:55:38.641Z,8.00
2018-05-21T03:58:19.096Z,9.67
2018-05-21T04:00:59.369Z,9.17
2018-05-21T04:03:39.336Z,10.17
2018-05-21T04:06:07.021Z,8.80
2018-05-21T04:08:34.705Z,9.87
2018-05-21T04:11:02.396Z,14.13
2018-05-21T04:13:30.876Z,8.93
2018-05-21T04:15:59.325Z,6.30
2018-05-21T04:18:27.008Z,9.73
2018-05-21T04:20:54.773Z,8.57
2018-05-21T04:23:22.448Z,8.73
2018-05-21T04:25:50.893Z,7.80
2018-05-21T04:28:18.576Z,6.83
2018-05-21T04:30:46.251Z,9.97
2018-05-21T04:33:14.692Z,7.37
2018-05-21T04:35:42.397Z,11.43
2018-05-21T04:38:10.840Z,15.43
2018-05-21T04:40:38.545Z,8.33
2018-05-21T04:43:06.989Z,12.10
2018-05-21T04:45:34.673Z,12.60
2018-05-21T04:48:03.128Z,8.10
2018-05-21T04:50:30.794Z,8.30
2018-05-21T04:52:58.484Z,8.43
2018-05-21T04:55:26.930Z,6.73
2018-05-21T04:57:54.613Z,9.90
2018-05-21T05:00:22.296Z,10.67
2018-05-21T05:02:50.737Z,9.20
2018-05-21T05:05:18.426Z,7.10
2018-05-21T05:07:47.248Z,8.53
2018-05-21T05:10:14.960Z,6.93
2018-05-21T05:12:42.902Z,8.50
2018-05-21T05:15:10.675Z,7.30
2018-05-21T05:17:38.349Z,6.60
2018-05-21T05:20:06.128Z,6.47
2018-05-21T05:22:33.877Z,4.80
2018-05-21T05:25:01.621Z,7.87
2018-05-21T05:27:29.424Z,4.90
2018-05-21T05:29:57.164Z,7.07
2018-05-21T05:32:25.550Z,6.63
2018-05-21T05:34:53.321Z,7.10
2018-05-21T05:37:21.063Z,5.17
2018-05-21T05:39:48.760Z,4.83
2018-05-21T05:42:16.501Z,6.03
2018-05-21T05:44:44.213Z,8.47
2018-05-21T05:47:11.914Z,8.17
2018-05-21T05:49:39.598Z,6.73
2018-05-21T05:52:07.359Z,6.80
2018-05-21T05:54:35.066Z,5.40
2018-05-21T05:57:02.932Z,8.20
2018-05-21T05:59:30.712Z,6.70
2018-05-21T06:01:58.500Z,6.57
2018-05-21T06:04:26.215Z,6.30
2018-05-21T06:06:54.661Z,6.70
2018-05-21T06:09:22.344Z,6.37
2018-05-21T06:11:50.571Z,8.33
2018-05-21T06:14:18.361Z,7.30
2018-05-21T06:16:46.129Z,6.17
2018-05-21T06:19:13.892Z,6.50
2018-05-21T06:21:41.581Z,6.37
2018-05-21T06:24:10.073Z,6.60
2018-05-21T06:26:37.867Z,7.00
2018-05-21T06:29:05.665Z,7.27
2018-05-21T06:31:33.432Z,4.97
2018-05-21T06:34:01.296Z,5.90
2018-05-21T06:36:28.988Z,7.37
2018-05-21T06:38:57.464Z,5.57
2018-05-21T06:41:25.297Z,7.00
2018-05-21T06:43:53.008Z,7.90
2018-05-21T06:46:21.489Z,6.73
2018-05-21T06:48:49.980Z,10.10
2018-05-21T06:51:17.725Z,5.13
2018-05-21T06:53:46.223Z,7.77
2018-05-21T06:56:13.930Z,8.03
2018-05-21T06:58:41.716Z,7.13
2018-05-21T07:01:09.501Z,6.33
2018-05-21T07:03:37.985Z,9.73
2018-05-21T07:06:06.599Z,4.47
2018-05-21T07:08:34.309Z,5.13
2018-05-21T07:11:02.024Z,6.53
2018-05-21T07:13:29.846Z,5.93
2018-05-21T07:15:57.798Z,6.27
2018-05-21T07:18:25.516Z,8.23
2018-05-21T07:20:53.366Z,5.20
2018-05-21T07:23:21.108Z,5.67
2018-05-21T07:25:48.909Z,7.80
2018-05-21T07:28:16.606Z,8.90
2018-05-21T07:30:45.346Z,4.73
2018-05-21T07:33:13.879Z,4.30
2018-05-21T07:35:41.591Z,5.70
2018-05-21T07:38:10.133Z,6.63
2018-05-21T07:40:37.833Z,5.53
2018-05-21T07:43:06.590Z,8.27
2018-05-21T07:45:34.344Z,4.30
2018-05-21T07:48:02.101Z,6.23
2018-05-21T07:50:29.874Z,6.03
2018-05-21T07:52:57.650Z,7.10
2018-05-21T07:55:25.392Z,6.53
2018-05-21T07:57:53.245Z,5.63
2018-05-21T08:00:21.064Z,4.17
2018-05-21T08:02:49.544Z,5.37
2018-05-21T08:05:18.179Z,4.87
2018-05-21T08:07:45.832Z,5.50
2018-05-21T08:10:13.697Z,6.00
2018-05-21T08:12:41.393Z,4.00
2018-05-21T08:15:09.144Z,4.90
2018-05-21T08:17:36.836Z,6.00
2018-05-21T08:20:04.790Z,4.87
2018-05-21T08:22:32.502Z,4.33
2018-05-21T08:25:00.236Z,4.90
2018-05-21T08:27:27.966Z,5.20
2018-05-21T08:29:55.710Z,4.77
2018-05-21T08:32:23.441Z,5.97
2018-05-21T08:34:51.189Z,5.30
2018-05-21T08:37:18.977Z,5.97
2018-05-21T08:39:46.756Z,4.20
2018-05-21T08:42:14.489Z,6.63
2018-05-21T08:44:42.428Z,5.73
2018-05-21T08:47:10.207Z,4.53
2018-05-21T08:49:37.952Z,3.97
2018-05-21T08:52:06.129Z,7.80
2018-05-21T08:54:33.864Z,3.30
2018-05-21T08:57:01.560Z,3.30
2018-05-21T08:59:29.253Z,4.23
2018-05-21T09:01:57.743Z,4.27
2018-05-21T09:04:25.505Z,4.27
2018-05-21T09:06:53.985Z,4.33
2018-05-21T09:09:22.527Z,5.43
2018-05-21T09:11:50.260Z,3.70
2018-05-21T09:14:18.016Z,3.10
2018-05-21T09:16:45.733Z,4.97
2018-05-21T09:19:13.506Z,2.40
2018-05-21T09:21:41.248Z,2.40
2018-05-21T09:24:10.316Z,2.73
2018-05-21T09:26:38.037Z,3.10
2018-05-21T09:29:05.768Z,2.93
2018-05-21T09:31:33.869Z,4.27
2018-05-21T09:34:01.603Z,2.60
2018-05-21T09:36:29.287Z,4.00
2018-05-21T09:38:57.041Z,2.87
2018-05-21T09:41:24.880Z,3.80
2018-05-21T09:43:52.609Z,4.17
2018-05-21T09:46:21.152Z,1.63
2018-05-21T09:48:48.892Z,2.50
2018-05-21T09:51:16.726Z,2.30
2018-05-21T09:53:44.441Z,2.43
2018-05-21T09:56:12.248Z,2.20
2018-05-21T09:58:40.729Z,2.63
2018-05-21T10:01:09.260Z,2.20
2018-05-21T10:03:36.953Z,5.00
2018-05-21T10:06:04.729Z,2.50
2018-05-21T10:08:33.206Z,3.87
2018-05-21T10:11:00.980Z,4.70
2018-05-21T10:13:29.456Z,2.37
2018-05-21T10:15:57.977Z,2.63
2018-05-21T10:18:25.691Z,2.37
2018-05-21T10:20:53.461Z,3.60
2018-05-21T10:23:21.197Z,2.87
2018-05-21T10:25:48.936Z,3.07
2018-05-21T10:28:16.793Z,2.07
2018-05-21T10:30:44.528Z,1.73
2018-05-21T10:33:12.233Z,1.60
2018-05-21T10:35:39.981Z,2.93
2018-05-21T10:38:07.688Z,3.43
2018-05-21T10:40:35.376Z,2.53
2018-05-21T10:43:03.848Z,2.60
2018-05-21T10:45:31.561Z,4.60
2018-05-21T10:47:59.484Z,2.43
2018-05-21T10:50:27.982Z,1.70
2018-05-21T10:52:55.857Z,4.47
2018-05-21T10:55:23.541Z,2.13
2018-05-21T10:57:51.283Z,2.73
2018-05-21T11:00:19.091Z,1.67
2018-05-21T11:02:46.854Z,3.33
2018-05-21T11:05:14.604Z,1.70
2018-05-21T11:07:42.356Z,2.87
2018-05-21T11:10:10.134Z,1.67
2018-05-21T11:12:37.824Z,1.73
2018-05-21T11:15:06.253Z,2.77
2018-05-21T11:17:33.996Z,5.87
2018-05-21T11:20:02.518Z,1.77
2018-05-21T11:22:30.234Z,2.07
2018-05-21T11:24:57.963Z,4.67
2018-05-21T11:27:25.737Z,1.77
2018-05-21T11:29:53.656Z,2.33
2018-05-21T11:32:22.191Z,1.60
2018-05-21T11:34:49.991Z,1.60
2018-05-21T11:37:18.505Z,2.40
2018-05-21T11:39:46.263Z,2.00
2018-05-21T11:42:14.134Z,2.20
2018-05-21T11:44:41.891Z,2.23
2018-05-21T11:47:09.612Z,3.07
2018-05-21T11:49:37.465Z,4.03
2018-05-21T11:52:05.188Z,2.37
2018-05-21T11:54:32.889Z,2.77
2018-05-21T11:57:00.647Z,1.60
2018-05-21T11:59:28.354Z,3.60
2018-05-21T12:01:56.069Z,1.50
2018-05-21T12:04:24.145Z,1.70
2018-05-21T12:06:51.897Z,3.58
2018-05-21T12:09:19.604Z,2.53
2018-05-21T12:11:48.072Z,3.97
2018-05-21T12:14:15.813Z,1.37
2018-05-21T12:16:43.508Z,1.52
2018-05-21T12:19:11.211Z,1.50
2018-05-21T12:21:39.004Z,1.87
2018-05-21T12:24:06.709Z,2.97
2018-05-21T12:26:35.219Z,4.20
2018-05-21T12:29:02.941Z,1.42
2018-05-21T12:31:30.709Z,1.55
2018-05-21T12:33:58.400Z,1.30
2018-05-21T12:36:26.432Z,1.73
2018-05-21T12:38:54.143Z,2.42
2018-05-21T12:41:21.948Z,1.85
2018-05-21T12:43:49.645Z,2.50
2018-05-21T12:46:17.511Z,1.50
2018-05-21T12:48:46.059Z,1.40
2018-05-21T12:51:14.808Z,1.40
2018-05-21T12:53:42.763Z,1.87
2018-05-21T12:56:10.504Z,4.33
2018-05-21T12:58:39.045Z,1.12
2018-05-21T13:01:06.939Z,1.30
2018-05-21T13:03:34.691Z,1.87
2018-05-21T13:06:02.390Z,1.85
2018-05-21T13:08:30.956Z,2.15
2018-05-21T13:10:58.755Z,3.67
2018-05-21T13:13:26.481Z,1.58
2018-05-21T13:15:54.254Z,1.20
2018-05-21T13:18:21.956Z,2.85
2018-05-21T13:20:49.744Z,4.62
2018-05-21T13:23:17.468Z,2.40
2018-05-21T13:25:45.330Z,2.67
2018-05-21T13:28:13.789Z,6.90
2018-05-21T13:30:41.596Z,1.62
2018-05-21T13:33:09.297Z,5.70
2018-05-21T13:35:36.989Z,1.87
2018-05-21T13:38:05.541Z,4.30
2018-05-21T13:40:33.308Z,3.07
2018-05-21T13:43:01.081Z,2.20
2018-05-21T13:45:28.777Z,4.37
2018-05-21T13:47:56.502Z,2.27
2018-05-21T13:50:24.209Z,2.63
2018-05-21T13:52:51.992Z,3.43
2018-05-21T13:55:19.680Z,2.10
2018-05-21T13:57:47.417Z,2.27
2018-05-21T14:00:15.233Z,3.17
2018-05-21T14:02:42.980Z,5.47
2018-05-21T14:05:10.723Z,4.57
2018-05-21T14:07:38.504Z,2.85
2018-05-21T14:10:06.216Z,1.37
2018-05-21T14:12:34.853Z,2.95
2018-05-21T14:15:02.544Z,2.35
2018-05-21T14:17:30.275Z,2.50
2018-05-21T14:19:58.097Z,3.15
2018-05-21T14:22:26.008Z,1.55
2018-05-21T14:24:53.752Z,2.05
2018-05-21T14:27:21.514Z,1.62
2018-05-21T14:29:49.480Z,1.40
2018-05-21T14:32:17.118Z,1.70
2018-05-21T14:34:45.604Z,1.98
2018-05-21T14:37:13.403Z,2.20
2018-05-21T14:39:41.219Z,2.00
2018-05-21T14:42:08.993Z,6.37
2018-05-21T14:44:37.511Z,3.42
2018-05-21T14:47:05.253Z,1.75
2018-05-21T14:49:32.960Z,1.60
2018-05-21T14:52:00.659Z,2.35
2018-05-21T14:54:29.145Z,4.32
2018-05-21T14:56:57.657Z,1.98
2018-05-21T14:59:25.484Z,2.87
2018-05-21T15:01:54.009Z,2.28
2018-05-21T15:04:21.769Z,3.00
2018-05-21T15:06:49.519Z,2.10
2018-05-21T15:09:17.281Z,2.37
2018-05-21T15:11:45.012Z,2.85
2018-05-21T15:14:12.780Z,3.78
2018-05-21T15:16:40.880Z,1.67
2018-05-21T15:19:08.589Z,2.92
2018-05-21T15:21:36.334Z,1.45
2018-05-21T15:24:04.051Z,1.25
2018-05-21T15:26:32.601Z,1.90
2018-05-21T15:29:00.364Z,1.70
2018-05-21T15:31:28.121Z,1.62
2018-05-21T15:33:55.853Z,5.28
2018-05-21T15:36:23.574Z,1.65
2018-05-21T15:38:51.312Z,2.08
2018-05-21T15:41:19.031Z,3.35
2018-05-21T15:43:46.751Z,3.10
2018-05-21T15:46:14.496Z,2.85
2018-05-21T15:48:42.446Z,3.10
2018-05-21T15:51:10.213Z,2.95
2018-05-21T15:53:37.908Z,1.60
2018-05-21T15:56:05.694Z,2.05
2018-05-21T15:58:33.405Z,1.97
2018-05-21T16:01:01.165Z,1.47
2018-05-21T16:03:28.864Z,2.87
2018-05-21T16:05:56.730Z,2.00
2018-05-21T16:08:24.429Z,1.67
2018-05-21T16:10:53.008Z,2.77
2018-05-21T16:13:21.521Z,2.07
2018-05-21T16:15:49.264Z,1.93
2018-05-21T16:18:17.732Z,2.80
2018-05-21T16:20:46.232Z,2.27
2018-05-21T16:23:14.004Z,1.87
2018-05-21T16:25:42.468Z,2.70
2018-05-21T16:28:10.195Z,6.70
2018-05-21T16:30:37.928Z,3.23
2018-05-21T16:33:05.714Z,4.57
2018-05-21T16:35:33.457Z,3.33
2018-05-21T16:38:01.609Z,2.50
2018-05-21T16:40:29.414Z,1.80
2018-05-21T16:42:57.130Z,7.20
2018-05-21T16:45:24.846Z,2.10
2018-05-21T16:47:52.560Z,2.37
2018-05-21T16:50:20.401Z,4.10
2018-05-21T16:52:48.106Z,1.60
2018-05-21T16:55:15.858Z,3.07
2018-05-21T16:57:43.564Z,2.40
2018-05-21T17:00:11.327Z,3.63
2018-05-21T17:02:39.088Z,4.00
2018-05-21T17:05:06.859Z,4.40
2018-05-21T17:07:34.624Z,1.93
2018-05-21T17:10:02.529Z,2.00
2018-05-21T17:12:31.040Z,2.10
2018-05-21T17:14:58.777Z,6.83
2018-05-21T17:17:26.532Z,1.83
2018-05-21T17:19:55.061Z,3.80
2018-05-21T17:22:22.989Z,5.27
2018-05-21T17:24:51.965Z,2.20
2018-05-21T17:27:19.709Z,1.30
2018-05-21T17:29:47.451Z,1.63
2018-05-21T17:32:15.171Z,2.97
2018-05-21T17:34:43.744Z,5.43
2018-05-21T17:37:11.509Z,3.27
2018-05-21T17:39:39.257Z,2.07
2018-05-21T17:42:07.016Z,1.67
2018-05-21T17:44:34.777Z,2.03
2018-05-21T17:47:02.568Z,4.40
2018-05-21T17:49:30.347Z,2.67
2018-05-21T17:51:58.024Z,7.13
2018-05-21T17:54:25.748Z,2.30
2018-05-21T17:56:53.929Z,2.80
2018-05-21T17:59:21.674Z,3.77
2018-05-21T18:01:49.386Z,4.50
2018-05-21T18:04:17.110Z,1.73
2018-05-21T18:06:44.874Z,2.90
2018-05-21T18:09:12.669Z,3.83
2018-05-21T18:11:41.240Z,5.60
2018-05-21T18:14:09.765Z,3.07
2018-05-21T18:16:37.579Z,2.80
2018-05-21T18:19:05.313Z,3.33
2018-05-21T18:21:33.054Z,2.77
2018-05-21T18:24:00.769Z,1.80
2018-05-21T18:26:28.552Z,1.70
2018-05-21T18:28:57.246Z,3.10
2018-05-21T18:31:25.094Z,2.43
2018-05-21T18:33:53.585Z,1.77
2018-05-21T18:36:22.127Z,2.20
2018-05-21T18:38:49.881Z,1.70
2018-05-21T18:41:17.713Z,2.67
2018-05-21T18:43:45.414Z,4.33
2018-05-21T18:46:13.208Z,2.73
2018-05-21T18:48:40.948Z,1.87
2018-05-21T18:51:08.658Z,1.60
2018-05-21T18:53:36.382Z,1.50
2018-05-21T18:56:04.342Z,1.67
2018-05-21T18:58:32.039Z,3.23
2018-05-21T19:01:00.968Z,2.17
2018-05-21T19:03:28.682Z,2.43
2018-05-21T19:05:56.381Z,2.00
2018-05-21T19:08:24.125Z,2.00
2018-05-21T19:10:52.707Z,1.93
2018-05-21T19:13:21.222Z,2.63
2018-05-21T19:15:48.976Z,1.67
2018-05-21T19:18:16.717Z,2.13
2018-05-21T19:20:45.192Z,2.73
2018-05-21T19:23:12.947Z,3.20
2018-05-21T19:25:40.645Z,4.93
2018-05-21T19:28:08.382Z,1.70
2018-05-21T19:30:36.933Z,3.53
2018-05-21T19:33:05.170Z,2.50
2018-05-21T19:35:32.928Z,2.10
2018-05-21T19:38:00.634Z,4.50
2018-05-21T19:40:28.332Z,2.27
2018-05-21T19:42:56.086Z,3.77
2018-05-21T19:45:23.824Z,2.30
2018-05-21T19:47:51.630Z,1.80
2018-05-21T19:50:20.572Z,3.73
2018-05-21T19:52:48.342Z,2.27
2018-05-21T19:55:16.045Z,1.83
2018-05-21T19:57:44.558Z,2.77
2018-05-21T20:00:12.309Z,2.03
2018-05-21T20:02:40.883Z,8.07
2018-05-21T20:05:09.364Z,2.30
2018-05-21T20:07:37.866Z,4.10
2018-05-21T20:10:05.681Z,6.67
2018-05-21T20:12:33.430Z,2.90
2018-05-21T20:15:01.143Z,2.73
2018-05-21T20:17:29.650Z,2.43
2018-05-21T20:19:57.420Z,4.27
2018-05-21T20:22:25.205Z,2.73
2018-05-21T20:24:52.970Z,6.23
2018-05-21T20:27:20.705Z,3.47
2018-05-21T20:29:48.526Z,1.90
2018-05-21T20:32:16.246Z,3.83
2018-05-21T20:34:44.004Z,3.13
2018-05-21T20:37:11.759Z,7.10
2018-05-21T20:39:39.533Z,3.53
2018-05-21T20:42:07.270Z,3.00
2018-05-21T20:44:35.753Z,3.73
2018-05-21T20:47:04.216Z,2.10
2018-05-21T20:49:31.893Z,2.37
2018-05-21T20:52:00.349Z,2.80
2018-05-21T20:54:28.093Z,4.17
2018-05-21T20:56:55.773Z,4.67
2018-05-21T20:59:23.498Z,4.10
2018-05-21T21:01:51.209Z,4.47
2018-05-21T21:04:18.890Z,2.03
2018-05-21T21:06:46.589Z,3.33
2018-05-21T21:09:14.376Z,3.93
2018-05-21T21:11:42.061Z,5.20
2018-05-21T21:14:09.741Z,5.97
2018-05-21T21:16:38.175Z,3.90
2018-05-21T21:19:05.869Z,3.37
2018-05-21T21:21:33.613Z,2.57
2018-05-21T21:24:01.298Z,3.10
2018-05-21T21:26:29.977Z,3.57
2018-05-21T21:28:57.657Z,2.63
2018-05-21T21:31:26.116Z,4.60
2018-05-21T21:33:53.816Z,2.43
2018-05-21T21:36:21.516Z,4.80
2018-05-21T21:38:49.193Z,5.40
2018-05-21T21:41:17.148Z,2.30
2018-05-21T21:43:44.845Z,5.30
2018-05-21T21:46:13.296Z,3.80
2018-05-21T21:48:40.975Z,2.83
2018-05-21T21:51:08.654Z,4.17
2018-05-21T21:53:37.103Z,4.87
2018-05-21T21:56:04.834Z,3.30
2018-05-21T21:58:32.553Z,4.40
2018-05-21T22:01:00.360Z,5.27
2018-05-21T22:03:28.050Z,4.80
2018-05-21T22:05:55.719Z,6.03
2018-05-21T22:08:23.389Z,6.20
2018-05-21T22:10:51.072Z,6.87
2018-05-21T22:13:18.756Z,8.00
2018-05-21T22:15:46.444Z,8.50
2018-05-21T22:18:14.124Z,6.83
2018-05-21T22:20:41.897Z,5.30
2018-05-21T22:23:09.585Z,5.80
2018-05-21T22:25:37.257Z,6.40
2018-05-21T22:28:05.704Z,5.87
2018-05-21T22:30:33.405Z,7.63
2018-05-21T22:33:01.876Z,5.43
2018-05-21T22:35:30.324Z,5.00
2018-05-21T22:37:58.025Z,6.00
2018-05-21T22:40:26.493Z,6.70
2018-05-21T22:42:54.308Z,5.17
2018-05-21T22:45:22.272Z,5.73
2018-05-21T22:47:49.972Z,5.07
2018-05-21T22:50:17.662Z,9.17
2018-05-21T22:52:46.108Z,5.93
2018-05-21T22:55:13.798Z,5.40
2018-05-21T22:57:41.473Z,5.13
2018-05-21T23:00:10.021Z,5.90
2018-05-21T23:02:37.774Z,9.13
2018-05-21T23:05:05.487Z,8.63
2018-05-21T23:07:33.977Z,6.30
2018-05-21T23:10:01.708Z,9.77
2018-05-21T23:12:29.392Z,5.87
2018-05-21T23:14:57.864Z,6.23
2018-05-21T23:17:26.336Z,6.57
2018-05-21T23:19:54.019Z,7.17
2018-05-21T23:25:15.130Z,9.97
2018-05-21T23:27:42.897Z,4.10
2018-05-21T23:30:10.593Z,5.00
2018-05-21T23:32:38.337Z,4.17
2018-05-21T23:35:06.776Z,5.13
2018-05-21T23:37:34.465Z,6.23
2018-05-21T23:40:02.233Z,4.73
2018-05-21T23:42:30.682Z,3.83
2018-05-21T23:44:58.377Z,6.30
2018-05-21T23:47:26.829Z,3.53
2018-05-21T23:49:54.669Z,3.73
2018-05-21T23:52:22.357Z,5.27
2018-05-21T23:54:50.041Z,4.07
2018-05-21T23:57:17.725Z,4.47
2018-05-21T23:59:46.189Z,9.07
